Time;durP1;ratioP1;P1;durP2;ratioP2;P2;SDS_P1;SDS_P2;PMS_P1;PMS_P2;Temp;Humidity;BMP_temperature;BMP_pressure;BME280_temperature;BME280_humidity;BME280_pressure;Samples;Min_cycle;Max_cycle;Signal;HPM_P1;HPM_P2
2023/12/24 00:01:36;;;;;;;;;1.00;1.00;;;;;21.19;46.73;99230.82;111399;1260;20591;-31
2023/12/24 00:04:03;;;;;;;;;1.00;1.00;;;;;21.19;46.62;99233.77;111399;1268;19574;-31
2023/12/24 00:06:30;;;;;;;;;1.00;1.00;;;;;21.19;46.62;99237.42;111508;1254;18621;-31
2023/12/24 00:08:57;;;;;;;;;1.00;1.00;;;;;21.19;46.45;99239.75;111519;1268;20844;-31
2023/12/24 00:11:25;;;;;;;;;1.00;1.00;;;;;21.19;46.76;99242.60;111334;1253;19689;-31
2023/12/24 00:13:52;;;;;;;;;1.00;1.00;;;;;21.19;46.42;99248.31;111199;1269;18663;-31
2023/12/24 00:16:19;;;;;;;;;1.00;1.00;;;;;21.18;46.62;99250.77;111263;1252;20823;-31
2023/12/24 00:18:47;;;;;;;;;1.00;1.00;;;;;21.19;46.73;99250.77;111287;1253;19668;-31
2023/12/24 00:21:14;;;;;;;;;1.00;1.00;;;;;21.19;46.83;99256.25;111324;1268;18623;-31
2023/12/24 00:23:42;;;;;;;;;1.00;1.00;;;;;21.19;46.78;99259.04;111314;1268;19417;-31
2023/12/24 00:26:09;;;;;;;;;1.00;1.00;;;;;21.18;46.47;99256.83;111266;1268;19499;-31
2023/12/24 00:28:37;;;;;;;;;1.00;1.00;;;;;21.19;46.69;99262.75;111290;1260;19775;-31
2023/12/24 00:31:04;;;;;;;;;1.00;1.00;;;;;21.18;46.59;99265.77;111297;1268;20721;-31
2023/12/24 00:33:31;;;;;;;;;1.50;1.50;;;;;21.18;46.44;99274.54;111405;1269;18167;-31
2023/12/24 00:35:59;;;;;;;;;3.00;2.00;;;;;21.17;46.49;99280.59;111404;1268;18778;-31
2023/12/24 00:38:26;;;;;;;;;1.00;1.00;;;;;21.18;46.53;99283.25;111279;1261;20724;-31
2023/12/24 00:40:53;;;;;;;;;1.00;1.00;;;;;21.18;46.46;99292.06;111444;1253;19316;-31
2023/12/24 00:43:20;;;;;;;;;1.00;1.00;;;;;21.18;46.48;99294.84;111326;1268;19974;-31
2023/12/24 00:45:48;;;;;;;;;1.00;1.00;;;;;21.17;46.47;99296.77;111213;1253;20787;-30
2023/12/24 00:48:15;;;;;;;;;1.00;1.00;;;;;21.18;46.21;99296.32;111387;1268;18698;-31
2023/12/24 00:50:42;;;;;;;;;1.00;1.00;;;;;21.18;46.57;99297.95;111292;1253;20533;-31
2023/12/24 00:53:10;;;;;;;;;1.00;1.00;;;;;21.18;46.66;99305.26;111248;1268;19578;-31
2023/12/24 00:55:39;;;;;;;;;1.00;1.00;;;;;21.17;46.29;99306.79;111295;1253;20773;-31
2023/12/24 00:58:07;;;;;;;;;1.00;1.00;;;;;21.17;46.26;99312.45;111267;1253;21624;-31
2023/12/24 01:00:34;;;;;;;;;1.00;1.00;;;;;21.17;46.48;99312.62;111471;1260;21794;-31
2023/12/24 01:03:02;;;;;;;;;1.00;1.00;;;;;21.17;46.27;99316.20;111457;1252;19827;-31
2023/12/24 01:05:29;;;;;;;;;1.00;1.00;;;;;21.17;46.37;99310.66;111492;1267;19947;-31
2023/12/24 01:07:56;;;;;;;;;1.00;1.00;;;;;21.16;46.32;99316.61;111487;1252;21173;-31
2023/12/24 01:10:24;;;;;;;;;1.00;1.00;;;;;21.16;46.25;99321.35;111538;1253;19658;-31
2023/12/24 01:12:51;;;;;;;;;2.00;2.00;;;;;21.16;46.45;99319.55;111321;1252;344132;-31
2023/12/24 01:15:18;;;;;;;;;2.00;1.00;;;;;21.17;46.35;99317.25;111452;1252;20539;-31
2023/12/24 01:17:46;;;;;;;;;1.00;1.00;;;;;21.16;46.53;99320.90;111607;1267;18258;-31
2023/12/24 01:20:13;;;;;;;;;1.00;1.00;;;;;21.15;46.22;99321.91;111440;1253;20030;-31
2023/12/24 01:22:40;;;;;;;;;1.00;1.00;;;;;21.15;46.28;99322.79;111690;1260;20840;-30
2023/12/24 01:25:08;;;;;;;;;1.00;1.00;;;;;21.14;46.31;99322.75;111445;1252;19843;-31
2023/12/24 01:27:36;;;;;;;;;1.00;1.00;;;;;21.14;46.17;99325.70;111638;1260;19945;-31
2023/12/24 01:30:03;;;;;;;;;1.00;1.00;;;;;21.15;46.37;99329.29;111431;1253;20771;-31
2023/12/24 01:32:31;;;;;;;;;1.00;1.00;;;;;21.14;46.19;99329.89;111630;1260;21091;-31
2023/12/24 01:34:58;;;;;;;;;1.00;1.00;;;;;21.14;46.40;99328.31;111474;1252;18603;-31
2023/12/24 01:37:25;;;;;;;;;1.00;1.00;;;;;21.13;46.26;99328.98;111732;1263;20783;-31
2023/12/24 01:39:53;;;;;;;;;1.00;1.00;;;;;21.13;46.29;99328.92;111544;1252;20793;-31
2023/12/24 01:42:20;;;;;;;;;1.00;1.00;;;;;21.13;46.21;99324.70;111535;1252;19969;-31
2023/12/24 01:44:47;;;;;;;;;1.00;1.00;;;;;21.14;46.31;99325.27;111552;1253;21916;-31
2023/12/24 01:47:14;;;;;;;;;1.00;1.00;;;;;21.13;46.15;99327.35;111458;1268;19380;-31
2023/12/24 01:49:45;;;;;;;;;1.00;1.00;;;;;21.14;46.32;99331.20;111564;1252;21421;-31
2023/12/24 01:52:12;;;;;;;;;1.00;1.00;;;;;21.13;45.97;99329.43;111573;1267;21132;-31
2023/12/24 01:54:39;;;;;;;;;1.00;1.00;;;;;21.13;46.09;99333.63;111439;1268;18385;-31
2023/12/24 01:57:07;;;;;;;;;1.00;1.00;;;;;21.14;46.08;99332.02;111588;1267;18595;-31
2023/12/24 01:59:34;;;;;;;;;1.00;1.00;;;;;21.13;46.22;99333.34;111449;1253;21158;-31
2023/12/24 02:02:01;;;;;;;;;1.00;1.00;;;;;21.13;46.04;99339.48;111634;1260;19601;-31
2023/12/24 02:04:28;;;;;;;;;1.00;1.00;;;;;21.13;46.16;99341.95;111492;1260;20143;-31
2023/12/24 02:06:56;;;;;;;;;1.00;1.00;;;;;21.13;46.11;99342.34;111690;1260;20797;-31
2023/12/24 02:09:23;;;;;;;;;1.00;1.00;;;;;21.13;46.18;99343.59;111571;1252;19444;-31
2023/12/24 02:11:51;;;;;;;;;1.00;1.00;;;;;21.12;46.13;99344.48;111776;1252;20033;-31
2023/12/24 02:14:18;;;;;;;;;1.00;1.00;;;;;21.13;46.16;99352.20;111575;1253;20840;-30
2023/12/24 02:16:45;;;;;;;;;1.00;1.00;;;;;21.12;46.41;99355.75;111680;1267;18201;-31
2023/12/24 02:19:13;;;;;;;;;1.00;1.00;;;;;21.12;46.24;99356.52;111626;1267;18664;-31
2023/12/24 02:21:40;;;;;;;;;1.00;1.00;;;;;21.12;46.16;99360.91;111436;1252;20800;-31
2023/12/24 02:24:07;;;;;;;;;1.00;1.00;;;;;21.12;46.18;99367.25;111683;1253;19860;-31
2023/12/24 02:26:35;;;;;;;;;1.00;1.00;;;;;21.11;46.29;99363.11;111436;1267;18663;-31
2023/12/24 02:29:02;;;;;;;;;1.00;1.00;;;;;21.11;46.10;99364.97;111646;1253;21914;-31
2023/12/24 02:31:29;;;;;;;;;1.00;1.00;;;;;21.12;46.27;99368.02;111588;1252;18548;-31
2023/12/24 02:33:56;;;;;;;;;1.00;1.00;;;;;21.12;46.16;99372.54;111792;1252;19974;-31
2023/12/24 02:36:24;;;;;;;;;1.00;1.00;;;;;21.12;45.93;99374.59;111672;1252;20932;-31
2023/12/24 02:38:51;;;;;;;;;1.00;1.00;;;;;21.11;46.15;99378.20;111527;1253;19618;-31
2023/12/24 02:41:18;;;;;;;;;1.00;1.00;;;;;21.10;45.85;99374.25;111626;1253;21219;-31
2023/12/24 02:43:46;;;;;;;;;1.00;1.00;;;;;21.11;46.02;99378.01;111535;1260;19363;-31
2023/12/24 02:46:13;;;;;;;;;1.00;1.00;;;;;21.10;45.75;99381.39;111627;1267;18198;-31
2023/12/24 02:48:40;;;;;;;;;1.50;1.00;;;;;21.09;46.07;99379.88;111443;1267;18624;-31
2023/12/24 02:51:08;;;;;;;;;1.00;1.00;;;;;21.10;45.99;99381.61;111671;1252;22352;-31
2023/12/24 02:53:35;;;;;;;;;1.00;1.00;;;;;21.10;46.08;99386.23;111425;1253;20773;-31
2023/12/24 02:56:02;;;;;;;;;1.00;1.00;;;;;21.09;45.97;99388.33;111526;1253;19983;-31
2023/12/24 02:58:30;;;;;;;;;1.00;1.00;;;;;21.09;45.95;99393.23;111452;1252;20778;-31
2023/12/24 03:00:57;;;;;;;;;1.00;1.00;;;;;21.08;45.94;99396.40;111472;1267;18205;-31
2023/12/24 03:03:24;;;;;;;;;1.00;1.00;;;;;21.08;45.94;99398.31;111507;1252;20186;-31
2023/12/24 03:05:52;;;;;;;;;1.00;1.00;;;;;21.09;45.91;99398.02;111524;1267;19347;-31
2023/12/24 03:08:19;;;;;;;;;1.00;1.00;;;;;21.09;45.80;99401.23;111516;1253;19654;-31
2023/12/24 03:10:46;;;;;;;;;1.00;1.00;;;;;21.08;45.81;99400.11;111555;1252;20038;-31
2023/12/24 03:13:14;;;;;;;;;1.00;1.00;;;;;21.08;45.96;99403.16;111567;1252;21989;-31
2023/12/24 03:15:41;;;;;;;;;1.00;1.00;;;;;21.08;46.12;99407.80;111532;1252;19505;-31
2023/12/24 03:18:08;;;;;;;;;1.00;1.00;;;;;21.08;45.99;99412.64;111572;1267;21811;-31
2023/12/24 03:20:36;;;;;;;;;1.00;1.00;;;;;21.09;45.77;99410.17;111493;1267;19391;-31
2023/12/24 03:23:03;;;;;;;;;1.00;1.00;;;;;21.08;45.92;99406.16;111456;1253;19576;-31
2023/12/24 03:25:30;;;;;;;;;1.00;1.00;;;;;21.07;45.82;99401.54;111516;1263;20200;-31
2023/12/24 03:27:58;;;;;;;;;1.00;1.00;;;;;21.08;45.74;99406.48;111487;1267;19452;-31
2023/12/24 03:30:25;;;;;;;;;1.00;1.00;;;;;21.08;45.94;99411.23;111516;1260;19591;-31
2023/12/24 03:32:53;;;;;;;;;1.00;1.00;;;;;21.07;45.77;99410.96;111535;1267;19907;-31
2023/12/24 03:35:20;;;;;;;;;3.00;1.00;;;;;21.08;46.08;99411.06;111485;1267;19361;-31
2023/12/24 03:37:47;;;;;;;;;1.00;1.00;;;;;21.07;46.19;99408.85;111573;1267;18938;-31
2023/12/24 03:40:15;;;;;;;;;1.00;1.00;;;;;21.07;45.86;99408.30;111423;1260;19925;-31
2023/12/24 03:42:42;;;;;;;;;1.00;1.00;;;;;21.08;45.86;99409.10;111599;1252;20612;-31
2023/12/24 03:45:09;;;;;;;;;1.00;1.00;;;;;21.08;45.67;99411.29;111453;1252;19554;-31
2023/12/24 03:47:36;;;;;;;;;1.00;1.00;;;;;21.08;45.79;99406.23;111432;1252;20107;-31
2023/12/24 03:50:05;;;;;;;;;1.00;1.00;;;;;21.07;45.75;99406.13;111489;1252;19546;-31
2023/12/24 03:52:32;;;;;;;;;1.00;1.00;;;;;21.07;45.74;99407.43;111574;1252;20890;-31
2023/12/24 03:54:59;;;;;;;;;1.00;1.00;;;;;21.08;45.67;99409.33;111499;1252;20016;-30
2023/12/24 03:57:27;;;;;;;;;1.00;1.00;;;;;21.06;45.75;99408.04;111418;1252;22012;-31
2023/12/24 03:59:54;;;;;;;;;1.00;1.00;;;;;21.06;45.95;99408.64;111527;1260;19542;-31
2023/12/24 04:02:24;;;;;;;;;1.00;1.00;;;;;21.07;45.81;99412.34;111512;1253;20104;-31
2023/12/24 04:04:51;;;;;;;;;1.00;1.00;;;;;21.06;45.78;99408.48;111489;1253;20798;-31
2023/12/24 04:07:19;;;;;;;;;1.00;1.00;;;;;21.06;45.68;99398.86;111587;1267;19499;-31
2023/12/24 04:09:46;;;;;;;;;1.00;1.00;;;;;21.06;45.79;99400.48;111568;1252;19828;-31
2023/12/24 04:12:13;;;;;;;;;1.00;1.00;;;;;21.06;45.60;99402.08;111647;1267;19404;-31
2023/12/24 04:14:40;;;;;;;;;2.00;1.00;;;;;21.05;45.67;99402.30;111456;1252;19580;-31
2023/12/24 04:17:08;;;;;;;;;1.00;1.00;;;;;21.06;45.62;99406.36;111629;1253;20231;-31
2023/12/24 04:19:35;;;;;;;;;1.00;1.00;;;;;21.05;45.84;99408.44;111444;1260;21826;-31
2023/12/24 04:22:02;;;;;;;;;1.00;1.00;;;;;21.05;45.88;99413.57;111503;1252;19629;-31
2023/12/24 04:24:30;;;;;;;;;1.00;1.00;;;;;21.05;45.83;99410.03;111481;1252;18606;-31
2023/12/24 04:26:57;;;;;;;;;1.00;1.00;;;;;21.04;45.79;99412.44;111530;1267;19813;-31
2023/12/24 04:29:25;;;;;;;;;1.00;1.00;;;;;21.05;45.88;99415.73;111450;1260;19444;-31
2023/12/24 04:31:52;;;;;;;;;1.00;1.00;;;;;21.05;45.93;99414.88;111446;1252;19879;-31
2023/12/24 04:34:19;;;;;;;;;1.00;1.00;;;;;21.06;45.75;99410.78;111503;1252;20764;-31
2023/12/24 04:36:47;;;;;;;;;1.00;1.00;;;;;21.05;45.53;99411.45;111447;1268;19456;-31
2023/12/24 04:39:14;;;;;;;;;1.00;1.00;;;;;21.04;45.66;99414.67;111514;1267;19921;-31
2023/12/24 04:41:41;;;;;;;;;1.00;1.00;;;;;21.05;45.68;99417.50;111501;1252;19539;-31
2023/12/24 04:44:08;;;;;;;;;1.00;1.00;;;;;21.04;45.93;99419.09;111592;1268;18555;-31
2023/12/24 04:46:36;;;;;;;;;1.00;1.00;;;;;21.03;45.66;99419.31;111577;1253;20127;-31
2023/12/24 04:49:03;;;;;;;;;1.00;1.00;;;;;21.04;45.59;99422.08;111585;1267;22402;-31
2023/12/24 04:51:30;;;;;;;;;1.00;1.00;;;;;21.05;45.75;99422.94;111627;1267;18184;-31
2023/12/24 04:53:58;;;;;;;;;1.00;1.00;;;;;21.04;45.79;99427.27;111450;1267;18632;-31
2023/12/24 04:56:25;;;;;;;;;3.00;3.00;;;;;21.04;45.91;99429.86;111506;1268;19235;-31
2023/12/24 04:58:53;;;;;;;;;1.00;1.00;;;;;21.02;45.64;99425.48;111442;1252;19628;-31
2023/12/24 05:01:20;;;;;;;;;1.00;1.00;;;;;21.04;45.76;99425.09;111580;1252;21273;-31
2023/12/24 05:03:48;;;;;;;;;1.00;1.00;;;;;21.03;45.64;99426.23;111465;1254;20908;-31
2023/12/24 05:06:15;;;;;;;;;1.00;1.00;;;;;21.04;45.74;99430.30;111467;1252;20854;-31
2023/12/24 05:08:42;;;;;;;;;1.00;1.00;;;;;21.04;45.89;99431.23;111483;1252;19889;-31
2023/12/24 05:11:10;;;;;;;;;1.00;1.00;;;;;21.05;45.68;99434.38;111463;1252;20793;-31
2023/12/24 05:13:37;;;;;;;;;1.00;1.00;;;;;21.03;45.72;99431.95;111510;1253;19677;-31
2023/12/24 05:16:04;;;;;;;;;1.00;1.00;;;;;21.03;45.63;99434.36;111250;1268;20443;-31
2023/12/24 05:18:31;;;;;;;;;1.00;1.00;;;;;21.02;45.66;99439.48;111566;1252;21048;-31
2023/12/24 05:20:59;;;;;;;;;1.00;1.00;;;;;21.03;45.76;99437.73;111478;1253;19710;-31
2023/12/24 05:23:26;;;;;;;;;1.00;1.00;;;;;21.03;45.49;99441.77;111637;1252;19950;-31
2023/12/24 05:25:53;;;;;;;;;3.00;3.00;;;;;21.03;45.68;99444.86;111457;1267;19370;-31
2023/12/24 05:28:21;;;;;;;;;1.00;1.00;;;;;21.03;45.43;99448.07;111691;1252;19611;-31
2023/12/24 05:30:48;;;;;;;;;1.00;1.00;;;;;21.02;45.59;99444.16;111520;1252;19900;-31
2023/12/24 05:33:15;;;;;;;;;1.00;1.00;;;;;21.03;45.71;99441.82;111659;1254;20972;-31
2023/12/24 05:35:42;;;;;;;;;1.00;1.00;;;;;21.02;45.66;99439.38;111569;1252;19710;-31
2023/12/24 05:38:10;;;;;;;;;1.00;1.00;;;;;21.02;45.55;99443.58;111490;1253;19670;-31
2023/12/24 05:40:37;;;;;;;;;1.00;1.00;;;;;21.02;45.63;99438.99;111565;1260;20773;-31
2023/12/24 05:43:04;;;;;;;;;1.00;1.00;;;;;21.02;45.79;99441.61;111468;1253;19600;-31
2023/12/24 05:45:33;;;;;;;;;1.00;1.00;;;;;21.02;45.59;99437.11;111606;1252;20017;-31
2023/12/24 05:48:00;;;;;;;;;1.00;1.00;;;;;21.00;45.66;99439.52;111703;1253;20847;-31
2023/12/24 05:50:28;;;;;;;;;1.00;1.00;;;;;21.01;45.52;99439.40;111565;1268;19499;-31
2023/12/24 05:52:55;;;;;;;;;1.00;1.00;;;;;21.01;45.63;99438.60;111451;1267;18618;-31
2023/12/24 05:55:22;;;;;;;;;1.00;1.00;;;;;21.01;45.81;99437.84;111583;1253;20846;-31
2023/12/24 05:57:50;;;;;;;;;1.00;1.00;;;;;21.01;45.75;99444.36;111429;1253;19690;-30
2023/12/24 06:00:17;;;;;;;;;1.00;1.00;;;;;21.02;45.73;99446.08;111543;1260;19904;-31
2023/12/24 06:02:45;;;;;;;;;1.00;1.00;;;;;21.02;45.62;99451.62;111462;1253;20794;-31
2023/12/24 06:05:12;;;;;;;;;1.00;1.00;;;;;21.02;45.46;99444.83;111601;1253;21292;-31
2023/12/24 06:07:40;;;;;;;;;1.00;1.00;;;;;21.01;45.84;99449.85;111443;1268;18707;-31
2023/12/24 06:10:07;;;;;;;;;1.00;1.00;;;;;21.02;45.96;99451.90;111556;1268;19268;-30
2023/12/24 06:12:35;;;;;;;;;1.00;1.00;;;;;21.02;45.83;99453.22;111454;1252;19607;-31
2023/12/24 06:15:03;;;;;;;;;1.00;1.00;;;;;21.02;45.65;99449.67;111585;1260;19996;-31
2023/12/24 06:17:30;;;;;;;;;1.00;1.00;;;;;21.02;45.69;99448.58;111467;1252;20685;-31
2023/12/24 06:19:57;;;;;;;;;1.00;1.00;;;;;21.01;45.91;99448.53;111595;1260;19645;-31
2023/12/24 06:22:24;;;;;;;;;1.00;1.00;;;;;21.02;45.85;99456.36;111431;1252;20011;-31
2023/12/24 06:24:52;;;;;;;;;1.00;1.00;;;;;21.02;45.84;99451.68;111603;1260;20653;-30
2023/12/24 06:27:19;;;;;;;;;2.00;2.00;;;;;21.02;45.80;99443.02;111452;1252;19650;-31
2023/12/24 06:29:47;;;;;;;;;1.00;1.00;;;;;21.02;45.81;99444.06;111428;1267;18659;-31
2023/12/24 06:32:14;;;;;;;;;1.00;1.00;;;;;21.02;45.71;99446.62;111510;1252;20714;-31
2023/12/24 06:34:41;;;;;;;;;1.00;1.00;;;;;21.01;45.71;99451.31;111533;1252;19819;-31
2023/12/24 06:37:09;;;;;;;;;1.00;1.00;;;;;21.02;45.80;99450.55;111572;1252;21123;-31
2023/12/24 06:39:36;;;;;;;;;1.00;1.00;;;;;21.01;45.80;99450.93;111587;1253;21905;-31
2023/12/24 06:42:03;;;;;;;;;1.00;1.00;;;;;21.02;45.84;99456.48;111616;1260;19932;-31
2023/12/24 06:44:31;;;;;;;;;1.00;1.00;;;;;21.01;45.61;99451.26;111626;1260;20048;-31
2023/12/24 06:46:58;;;;;;;;;1.00;1.00;;;;;21.02;45.80;99450.02;111662;1252;20830;-31
2023/12/24 06:49:25;;;;;;;;;1.00;1.00;;;;;21.02;45.68;99454.91;111498;1260;19638;-31
2023/12/24 06:51:52;;;;;;;;;1.00;1.00;;;;;21.02;45.65;99450.17;111433;1267;18775;-31
2023/12/24 06:54:20;;;;;;;;;1.00;1.00;;;;;21.01;45.67;99449.05;111454;1268;19482;-31
2023/12/24 06:56:47;;;;;;;;;1.00;1.00;;;;;21.01;45.79;99448.82;111471;1260;19558;-30
2023/12/24 06:59:15;;;;;;;;;1.00;1.00;;;;;21.01;45.72;99451.32;111483;1267;19946;-31
2023/12/24 07:01:42;;;;;;;;;1.00;1.00;;;;;21.01;45.67;99454.42;111557;1252;22116;-31
2023/12/24 07:04:09;;;;;;;;;1.00;1.00;;;;;21.04;45.73;99452.25;111509;1252;19578;-31
2023/12/24 07:06:37;;;;;;;;;1.00;1.00;;;;;21.10;45.66;99449.73;111553;1267;20234;-31
2023/12/24 07:09:05;;;;;;;;;2.00;1.00;;;;;21.10;45.83;99446.35;111564;1267;19516;-31
2023/12/24 07:11:32;;;;;;;;;1.00;1.00;;;;;21.13;46.17;99446.58;111517;1252;19606;-31
2023/12/24 07:14:00;;;;;;;;;2.00;1.00;;;;;21.17;46.39;99450.63;111442;1267;19910;-31
2023/12/24 07:16:27;;;;;;;;;1.00;1.00;;;;;21.18;46.62;99446.72;111532;1252;20833;-31
2023/12/24 07:18:54;;;;;;;;;2.00;2.00;;;;;21.24;46.87;99444.83;111479;1252;19767;-31
2023/12/24 07:21:22;;;;;;;;;1.00;1.00;;;;;21.21;47.19;99448.48;111539;1260;19919;-30
2023/12/24 07:23:49;;;;;;;;;1.00;1.00;;;;;21.21;47.12;99450.02;111564;1252;20642;-31
2023/12/24 07:26:16;;;;;;;;;1.00;1.00;;;;;21.21;46.78;99449.63;111626;1252;19614;-31
2023/12/24 07:28:43;;;;;;;;;1.00;1.00;;;;;21.18;47.23;99449.83;111585;1252;18712;-31
2023/12/24 07:31:11;;;;;;;;;2.00;2.00;;;;;21.17;47.19;99446.33;111461;1252;20950;-30
2023/12/24 07:33:38;;;;;;;;;1.00;1.00;;;;;21.15;47.53;99452.39;111459;1267;18184;-31
2023/12/24 07:36:05;;;;;;;;;2.00;1.00;;;;;21.14;47.32;99454.05;111471;1268;19969;-31
2023/12/24 07:38:33;;;;;;;;;2.00;1.00;;;;;21.13;47.32;99454.63;111542;1267;19335;-31
2023/12/24 07:41:00;;;;;;;;;1.00;1.00;;;;;21.16;46.96;99454.02;111451;1268;19494;-31
2023/12/24 07:43:28;;;;;;;;;2.00;2.00;;;;;21.21;46.83;99455.62;111546;1260;20022;-31
2023/12/24 07:45:56;;;;;;;;;1.00;1.00;;;;;21.19;46.74;99462.52;111416;1252;21749;-31
2023/12/24 07:48:24;;;;;;;;;1.00;1.00;;;;;21.23;46.30;99459.30;111551;1252;19838;-31
2023/12/24 07:50:51;;;;;;;;;2.00;2.00;;;;;21.26;46.42;99463.54;111460;1252;20021;-31
2023/12/24 07:53:18;;;;;;;;;2.00;2.00;;;;;21.24;46.40;99463.03;111544;1267;19318;-31
2023/12/24 07:55:46;;;;;;;;;1.00;1.00;;;;;21.23;46.27;99459.71;111474;1260;19562;-31
2023/12/24 07:58:13;;;;;;;;;2.00;2.00;;;;;21.27;46.40;99454.58;111600;1267;19850;-30
2023/12/24 08:00:40;;;;;;;;;1.00;1.00;;;;;21.26;46.23;99453.45;111486;1253;20761;-30
2023/12/24 08:03:08;;;;;;;;;4.00;1.00;;;;;21.25;46.67;99454.52;111615;1267;18223;-31
2023/12/24 08:05:35;;;;;;;;;1.00;1.00;;;;;21.24;46.43;99460.86;111427;1252;18851;-31
2023/12/24 08:08:02;;;;;;;;;1.50;1.50;;;;;21.23;46.71;99459.84;111606;1252;19324;-31
2023/12/24 08:10:30;;;;;;;;;2.00;1.00;;;;;21.23;46.64;99464.40;111463;1268;20009;-31
2023/12/24 08:12:57;;;;;;;;;1.00;1.00;;;;;21.22;46.55;99459.73;111665;1252;20087;-31
2023/12/24 08:15:24;;;;;;;;;2.00;2.00;;;;;21.25;46.83;99456.48;111494;1267;19806;-31
2023/12/24 08:17:52;;;;;;;;;1.00;1.00;;;;;21.26;46.82;99460.10;111504;1252;18868;-30
2023/12/24 08:20:21;;;;;;;;;2.00;2.00;;;;;21.24;46.53;99453.16;111550;1252;21368;-31
2023/12/24 08:22:48;;;;;;;;;1.00;1.00;;;;;21.25;46.48;99445.69;111683;1267;19699;-31
2023/12/24 08:25:15;;;;;;;;;1.00;1.00;;;;;21.28;46.94;99440.07;111540;1252;18709;-31
2023/12/24 08:27:43;;;;;;;;;2.00;2.00;;;;;21.31;46.93;99434.98;111783;1260;19954;-31
2023/12/24 08:30:10;;;;;;;;;1.00;1.00;;;;;21.28;46.91;99430.37;111587;1253;21352;-31
2023/12/24 08:32:37;;;;;;;;;1.00;1.00;;;;;21.31;47.00;99422.73;111625;1267;19639;-31
2023/12/24 08:35:04;;;;;;;;;1.00;1.00;;;;;21.33;47.09;99428.52;111555;1252;20112;-31
2023/12/24 08:37:32;;;;;;;;;2.00;2.00;;;;;21.35;47.15;99431.42;111504;1267;20648;-31
2023/12/24 08:39:59;;;;;;;;;2.00;2.00;;;;;21.31;47.10;99437.50;111561;1253;18242;-31
2023/12/24 08:42:26;;;;;;;;;1.00;1.00;;;;;21.33;47.22;99436.95;111491;1253;20503;-30
2023/12/24 08:44:54;;;;;;;;;4.00;2.00;;;;;21.32;47.11;99435.56;111625;1268;20666;-32
2023/12/24 08:47:21;;;;;;;;;1.00;1.00;;;;;21.35;47.39;99431.97;111609;1252;18713;-31
2023/12/24 08:49:48;;;;;;;;;2.00;2.00;;;;;21.33;47.91;99433.52;111596;1252;20078;-31
2023/12/24 08:52:16;;;;;;;;;1.00;1.00;;;;;21.32;48.33;99427.14;111634;1252;20801;-31
2023/12/24 08:54:43;;;;;;;;;2.50;2.50;;;;;21.36;48.74;99432.66;111636;1267;19583;-31
2023/12/24 08:57:11;;;;;;;;;1.00;1.00;;;;;21.36;48.79;99438.04;111525;1267;20091;-30
2023/12/24 08:59:38;;;;;;;;;1.00;1.00;;;;;21.35;49.13;99432.39;111658;1260;20343;-31
2023/12/24 09:02:05;;;;;;;;;2.00;2.00;;;;;21.34;48.86;99434.65;111511;1252;19613;-31
2023/12/24 09:04:33;;;;;;;;;1.00;1.00;;;;;21.37;49.26;99435.20;111673;1252;19865;-31
2023/12/24 09:07:00;;;;;;;;;3.00;3.00;;;;;21.37;49.35;99432.36;111447;1253;19380;-31
2023/12/24 09:09:27;;;;;;;;;1.00;1.00;;;;;21.39;49.35;99434.98;111440;1253;19622;-31
2023/12/24 09:11:55;;;;;;;;;1.00;1.00;;;;;21.41;49.60;99438.36;111479;1253;20451;-31
2023/12/24 09:14:22;;;;;;;;;3.00;3.00;;;;;21.39;49.59;99433.13;111488;1253;20757;-31
2023/12/24 09:16:49;;;;;;;;;1.00;1.00;;;;;21.38;49.45;99440.55;111503;1267;19768;-31
2023/12/24 09:19:17;;;;;;;;;1.67;1.67;;;;;21.40;49.56;99446.23;111521;1260;21174;-31
2023/12/24 09:21:44;;;;;;;;;2.00;2.00;;;;;21.38;49.33;99451.58;111533;1252;20818;-31
2023/12/24 09:24:11;;;;;;;;;2.50;2.50;;;;;21.43;49.43;99451.14;111485;1252;19947;-31
2023/12/24 09:26:39;;;;;;;;;1.00;1.00;;;;;21.41;49.45;99451.34;111584;1268;18642;-31
2023/12/24 09:29:06;;;;;;;;;2.67;2.67;;;;;21.49;49.98;99450.08;111452;1252;20838;-31
2023/12/24 09:31:33;;;;;;;;;1.00;1.00;;;;;21.49;49.96;99451.33;111582;1253;18196;-31
2023/12/24 09:34:00;;;;;;;;;5.00;4.00;;;;;21.48;49.90;99451.07;111531;1267;20524;-31
2023/12/24 09:36:28;;;;;;;;;2.00;2.00;;;;;21.46;49.64;99446.05;111459;1267;19354;-31
2023/12/24 09:38:55;;;;;;;;;2.00;2.00;;;;;21.45;49.64;99442.92;111463;1253;19685;-31
2023/12/24 09:41:22;;;;;;;;;4.00;2.00;;;;;21.44;49.84;99445.77;111502;1252;19992;-31
2023/12/24 09:43:50;;;;;;;;;1.50;1.50;;;;;21.40;49.67;99444.16;111510;1268;19376;-31
2023/12/24 09:46:17;;;;;;;;;1.00;1.00;;;;;21.38;49.58;99441.33;111478;1254;18193;-27
2023/12/24 09:48:44;;;;;;;;;1.00;1.00;;;;;21.41;49.67;99439.46;111520;1268;20016;-29
2023/12/24 09:51:12;;;;;;;;;1.00;1.00;;;;;21.40;49.19;99441.98;111517;1268;19250;-30
2023/12/24 09:53:39;;;;;;;;;2.00;2.00;;;;;21.40;49.20;99441.40;111526;1252;19660;-30
2023/12/24 09:56:06;;;;;;;;;1.00;1.00;;;;;21.42;49.17;99438.48;111536;1252;21342;-30
2023/12/24 09:58:34;;;;;;;;;1.00;1.00;;;;;21.40;49.25;99435.23;111575;1252;21076;-30
2023/12/24 10:01:01;;;;;;;;;1.50;1.50;;;;;21.38;49.17;99426.23;111628;1252;19602;-30
2023/12/24 10:03:28;;;;;;;;;4.00;2.00;;;;;21.41;49.29;99419.97;111438;1267;19520;-30
2023/12/24 10:05:56;;;;;;;;;1.50;1.50;;;;;21.43;49.41;99420.83;111684;1267;19357;-30
2023/12/24 10:08:23;;;;;;;;;1.00;1.00;;;;;21.43;49.26;99425.86;111490;1251;19579;-30
2023/12/24 10:10:50;;;;;;;;;2.00;2.00;;;;;21.42;49.15;99422.67;111558;1253;20140;-30
2023/12/24 10:13:18;;;;;;;;;2.00;2.00;;;;;21.40;49.33;99420.73;111547;1254;20743;-30
2023/12/24 10:15:45;;;;;;;;;1.00;1.00;;;;;21.42;49.42;99414.89;111540;1252;19555;-30
2023/12/24 10:18:12;;;;;;;;;2.00;2.00;;;;;21.44;49.52;99410.36;111549;1252;18498;-29
2023/12/24 10:20:40;;;;;;;;;2.00;2.00;;;;;21.45;49.44;99406.59;111567;1267;19362;-29
2023/12/24 10:23:07;;;;;;;;;4.00;4.00;;;;;21.44;49.11;99407.21;111580;1252;19973;-29
2023/12/24 10:25:34;;;;;;;;;2.00;2.00;;;;;21.40;49.53;99403.05;111506;1252;18836;-29
2023/12/24 10:28:02;;;;;;;;;2.00;2.00;;;;;21.33;49.53;99406.02;111583;1252;20806;-30
2023/12/24 10:30:29;;;;;;;;;2.00;2.00;;;;;21.29;49.13;99403.81;111446;1267;18202;-29
2023/12/24 10:32:57;;;;;;;;;1.00;1.00;;;;;21.27;49.46;99404.85;111587;1253;19978;-29
2023/12/24 10:35:26;;;;;;;;;1.50;1.50;;;;;21.25;49.14;99402.94;111473;1268;20738;-30
2023/12/24 10:37:53;;;;;;;;;2.00;2.00;;;;;21.23;49.01;99403.13;111537;1252;19602;-29
2023/12/24 10:40:20;;;;;;;;;1.00;1.00;;;;;21.22;49.05;99397.81;111602;1252;20099;-29
2023/12/24 10:42:47;;;;;;;;;2.00;2.00;;;;;21.21;48.88;99397.11;111573;1253;20848;-29
2023/12/24 10:45:16;;;;;;;;;1.00;1.00;;;;;21.22;48.85;99388.76;111447;1252;19623;-29
2023/12/24 10:47:43;;;;;;;;;1.00;1.00;;;;;21.22;48.89;99386.10;111517;1252;19913;-29
2023/12/24 10:50:11;;;;;;;;;1.00;1.00;;;;;21.25;48.62;99383.59;111684;1267;22336;-29
2023/12/24 10:52:38;;;;;;;;;2.00;2.00;;;;;21.33;48.48;99376.17;111557;1267;18216;-29
2023/12/24 10:55:06;;;;;;;;;2.00;2.00;;;;;21.35;48.71;99367.25;111433;1260;19961;-29
2023/12/24 10:57:33;;;;;;;;;3.00;2.00;;;;;21.32;48.59;99360.84;111561;1267;19581;-29
2023/12/24 11:00:01;;;;;;;;;2.00;2.00;;;;;21.35;49.03;99352.50;111511;1252;19622;-29
2023/12/24 11:02:29;;;;;;;;;2.00;2.00;;;;;21.37;48.92;99354.63;111618;1267;18644;-29
2023/12/24 11:04:57;;;;;;;;;2.50;2.50;;;;;21.36;48.86;99353.61;111574;1253;21871;-30
2023/12/24 11:07:24;;;;;;;;;4.00;2.00;;;;;21.37;48.62;99353.64;111513;1253;19655;-30
2023/12/24 11:09:51;;;;;;;;;1.00;1.00;;;;;21.30;48.68;99352.10;111605;1253;20044;-30
2023/12/24 11:12:19;;;;;;;;;2.00;2.00;;;;;21.28;48.46;99348.11;111512;1267;19491;-29
2023/12/24 11:14:47;;;;;;;;;2.00;2.00;;;;;21.21;48.06;99342.96;111455;1252;20744;-30
2023/12/24 11:17:14;;;;;;;;;2.00;2.00;;;;;21.20;48.45;99342.23;111485;1252;20066;-29
2023/12/24 11:19:42;;;;;;;;;2.00;2.00;;;;;21.17;48.67;99340.55;111552;1252;22009;-29
2023/12/24 11:22:09;;;;;;;;;2.00;2.00;;;;;21.16;49.06;99344.66;111501;1267;19473;-29
2023/12/24 11:24:41;;;;;;;;;1.50;1.50;;;;;21.13;48.63;99340.10;111462;1252;21308;-29